Terminal Aerodrome Forecast
Issued by NWS Charleston, WV

Current Version | Previous Version | Text Only | Print | Product List | Glossary Off
Versions: 1 2 3 4 5 6 7 8 9 10 11 12 13 14 15 16 17 18 19 20 21 22 23 24 25 26 27 28 29 30

000
FTUS41 KRLX 301100
TAFEKN
TAF
KEKN 301120Z 3012/3112 30012G17KT 2SM -SN BR FEW010 BKN014 OVC040
     FM301700 30015G23KT 3SM -SN BR BKN025
     FM302100 30009G14KT P6SM BKN015
     FM310800 26008KT P6SM BKN050=

USA.gov is the U.S. government's official web portal to all federal, state and local government web resources and services.